createdAt,value
2019-05-17T00:00:57.146Z,26.52
2019-05-17T00:03:26.938Z,28.12
2019-05-17T00:05:57.037Z,28.52
2019-05-17T00:08:34.369Z,27.27
2019-05-17T00:10:57.040Z,24.50
2019-05-17T00:13:26.832Z,25.35
2019-05-17T00:15:56.623Z,25.08
2019-05-17T00:18:26.454Z,23.27
2019-05-17T00:20:56.985Z,26.03
2019-05-17T00:23:26.882Z,25.57
2019-05-17T00:25:56.405Z,25.65
2019-05-17T00:28:26.906Z,24.18
2019-05-17T00:30:57.139Z,25.50
2019-05-17T00:33:27.205Z,24.75
2019-05-17T00:35:56.242Z,25.50
2019-05-17T00:38:27.222Z,24.47
2019-05-17T00:40:56.484Z,19.73
2019-05-17T00:43:26.245Z,24.90
2019-05-17T00:45:57.286Z,24.35
2019-05-17T00:48:26.456Z,23.20
2019-05-17T00:51:01.253Z,24.95
2019-05-17T00:53:26.899Z,23.95
2019-05-17T00:55:57.348Z,26.00
2019-05-17T00:58:26.346Z,24.43
2019-05-17T01:00:57.153Z,22.13
2019-05-17T01:03:26.939Z,24.87
2019-05-17T01:05:57.243Z,23.22
2019-05-17T01:08:26.547Z,23.40
2019-05-17T01:10:56.574Z,23.92
2019-05-17T01:13:26.678Z,24.05
2019-05-17T01:15:56.729Z,24.02
2019-05-17T01:18:26.931Z,24.10
2019-05-17T01:20:56.798Z,24.05
2019-05-17T01:23:27.111Z,25.75
2019-05-17T01:25:56.717Z,24.27
2019-05-17T01:28:26.974Z,26.85
2019-05-17T01:30:56.953Z,25.17
2019-05-17T01:33:26.447Z,24.40
2019-05-17T01:35:57.215Z,25.43
2019-05-17T01:38:26.986Z,25.20
2019-05-17T01:40:56.458Z,24.35
2019-05-17T01:43:27.201Z,23.47
2019-05-17T01:45:57.279Z,24.55
2019-05-17T01:48:27.088Z,26.40
2019-05-17T01:50:56.810Z,26.02
2019-05-17T01:53:27.061Z,25.05
2019-05-17T01:55:56.841Z,25.12
2019-05-17T01:58:26.993Z,25.72
2019-05-17T02:00:57.333Z,24.92
2019-05-17T02:03:26.796Z,23.75
2019-05-17T02:05:56.654Z,25.02
2019-05-17T02:08:26.437Z,24.40
2019-05-17T02:10:57.226Z,24.60
2019-05-17T02:13:26.789Z,25.37
2019-05-17T02:15:56.445Z,24.77
2019-05-17T02:18:26.618Z,24.07
2019-05-17T02:20:57.075Z,24.92
2019-05-17T02:23:27.036Z,26.07
2019-05-17T02:25:57.135Z,26.40
2019-05-17T02:28:25.786Z,26.60
2019-05-17T02:30:54.468Z,26.10
2019-05-17T02:33:23.626Z,23.87
2019-05-17T02:35:53.628Z,24.32
2019-05-17T02:38:22.536Z,25.05
2019-05-17T02:40:53.627Z,25.08
2019-05-17T02:43:23.603Z,24.37
2019-05-17T02:45:52.751Z,23.20
2019-05-17T02:48:23.345Z,25.20
2019-05-17T02:50:53.293Z,24.40
2019-05-17T02:53:23.012Z,23.77
2019-05-17T02:55:54.004Z,22.62
2019-05-17T02:58:23.372Z,22.50
2019-05-17T03:00:53.190Z,25.27
2019-05-17T03:03:23.643Z,24.33
2019-05-17T03:05:53.546Z,25.05
2019-05-17T03:08:23.435Z,24.63
2019-05-17T03:10:55.265Z,25.30
2019-05-17T03:13:23.722Z,23.38
2019-05-17T03:15:52.913Z,25.20
2019-05-17T03:18:22.892Z,26.37
2019-05-17T03:20:52.475Z,25.12
2019-05-17T03:23:23.445Z,26.05
2019-05-17T03:25:52.397Z,25.57
2019-05-17T03:28:23.562Z,24.57
2019-05-17T03:30:56.877Z,24.07
2019-05-17T03:33:27.092Z,24.43
2019-05-17T03:35:56.970Z,24.32
2019-05-17T03:38:25.765Z,22.82
2019-05-17T03:41:12.006Z,22.73
2019-05-17T03:43:24.428Z,24.30
2019-05-17T03:45:54.516Z,21.33
2019-05-17T03:48:22.946Z,21.90
2019-05-17T03:50:53.139Z,21.82
2019-05-17T03:53:22.949Z,21.45
2019-05-17T03:55:54.045Z,20.80
2019-05-17T03:58:23.477Z,20.77
2019-05-17T04:00:54.571Z,20.02
2019-05-17T04:03:24.618Z,17.42
2019-05-17T04:05:53.373Z,18.20
2019-05-17T04:08:22.861Z,17.82
2019-05-17T04:10:52.966Z,19.15
2019-05-17T04:13:23.461Z,19.80
2019-05-17T04:15:53.377Z,20.05
2019-05-17T04:18:23.511Z,21.68
2019-05-17T04:20:52.793Z,21.87
2019-05-17T04:23:23.292Z,21.00
2019-05-17T04:25:53.020Z,20.85
2019-05-17T04:28:22.982Z,20.88
2019-05-17T04:30:53.192Z,22.20
2019-05-17T04:33:23.199Z,21.17
2019-05-17T04:35:54.068Z,22.75
2019-05-17T04:38:23.687Z,22.45
2019-05-17T04:40:55.309Z,22.00
2019-05-17T04:43:23.828Z,24.05
2019-05-17T04:45:53.681Z,22.52
2019-05-17T04:48:23.235Z,22.45
2019-05-17T04:50:53.700Z,21.93
2019-05-17T04:53:23.332Z,22.30
2019-05-17T04:55:54.045Z,23.60
2019-05-17T04:58:23.187Z,22.35
2019-05-17T05:00:53.698Z,22.15
2019-05-17T05:03:23.092Z,22.40
2019-05-17T05:05:53.594Z,21.82
2019-05-17T05:08:22.530Z,21.73
2019-05-17T05:10:53.488Z,22.05
2019-05-17T05:13:22.809Z,21.75
2019-05-17T05:15:52.197Z,20.82
2019-05-17T05:18:22.179Z,22.15
2019-05-17T05:20:52.673Z,20.30
2019-05-17T05:23:23.893Z,22.10
2019-05-17T05:25:54.153Z,20.82
2019-05-17T05:28:22.670Z,20.77
2019-05-17T05:30:52.703Z,21.15
2019-05-17T05:33:22.155Z,19.73
2019-05-17T05:35:51.685Z,20.70
2019-05-17T05:38:21.732Z,20.82
2019-05-17T05:40:52.340Z,22.22
2019-05-17T05:43:22.770Z,21.30
2019-05-17T05:45:53.468Z,19.60
2019-05-17T05:48:21.789Z,22.32
2019-05-17T05:50:53.278Z,20.08
2019-05-17T05:53:21.979Z,21.87
2019-05-17T05:55:51.830Z,20.20
2019-05-17T05:58:23.587Z,18.67
2019-05-17T06:00:52.914Z,20.25
2019-05-17T06:03:23.289Z,21.50
2019-05-17T06:05:52.484Z,20.45
2019-05-17T06:08:22.711Z,20.37
2019-05-17T06:10:53.132Z,19.55
2019-05-17T06:13:21.901Z,17.27
2019-05-17T06:15:54.673Z,17.60
2019-05-17T06:18:25.057Z,17.35
2019-05-17T06:20:53.477Z,16.23
2019-05-17T06:23:23.446Z,14.58
2019-05-17T06:25:54.135Z,15.48
2019-05-17T06:28:25.201Z,15.20
2019-05-17T06:30:55.802Z,13.13
2019-05-17T06:33:30.886Z,13.43
2019-05-17T06:36:02.677Z,14.20
2019-05-17T06:38:33.129Z,13.70
2019-05-17T06:41:06.569Z,14.07
2019-05-17T06:43:38.485Z,12.75
2019-05-17T06:46:06.907Z,12.85
2019-05-17T06:48:43.970Z,12.98
2019-05-17T06:51:13.581Z,13.45
2019-05-17T06:53:46.401Z,12.23
2019-05-17T06:56:14.939Z,12.47
2019-05-17T06:58:43.448Z,12.60
2019-05-17T07:01:15.967Z,12.45
2019-05-17T07:03:44.473Z,12.40
2019-05-17T07:06:14.549Z,12.98
2019-05-17T07:08:43.071Z,12.33
2019-05-17T07:11:11.746Z,12.78
2019-05-17T07:13:40.244Z,13.18
2019-05-17T07:16:10.221Z,12.78
2019-05-17T07:18:39.977Z,12.10
2019-05-17T07:21:10.034Z,13.58
2019-05-17T07:23:40.343Z,12.88
2019-05-17T07:26:11.815Z,12.95
2019-05-17T07:28:40.444Z,12.45
2019-05-17T07:31:10.127Z,13.40
2019-05-17T07:33:39.883Z,13.20
2019-05-17T07:36:10.199Z,13.05
2019-05-17T07:38:39.638Z,13.25
2019-05-17T07:41:10.138Z,12.80
2019-05-17T07:43:40.303Z,10.88
2019-05-17T07:46:09.580Z,13.53
2019-05-17T07:48:40.305Z,13.08
2019-05-17T07:51:10.138Z,13.18
2019-05-17T07:53:40.099Z,13.95
2019-05-17T07:56:10.448Z,13.62
2019-05-17T07:58:40.389Z,13.28
2019-05-17T08:01:10.030Z,12.50
2019-05-17T08:03:40.610Z,13.85
2019-05-17T08:06:10.546Z,13.08
2019-05-17T08:08:40.975Z,13.72
2019-05-17T08:11:10.581Z,13.08
2019-05-17T08:13:39.864Z,13.65
2019-05-17T08:16:10.292Z,13.78
2019-05-17T08:18:40.235Z,12.78
2019-05-17T08:21:10.402Z,12.90
2019-05-17T08:23:40.097Z,12.82
2019-05-17T08:26:10.495Z,12.37
2019-05-17T08:28:40.398Z,13.60
2019-05-17T08:31:09.924Z,12.73
2019-05-17T08:33:40.472Z,13.08
2019-05-17T08:36:09.274Z,11.75
2019-05-17T08:38:39.387Z,11.75
2019-05-17T08:41:10.343Z,11.40
2019-05-17T08:43:45.746Z,11.48
2019-05-17T08:46:10.542Z,11.10
2019-05-17T08:48:40.187Z,11.78
2019-05-17T08:51:10.779Z,12.18
2019-05-17T08:53:39.891Z,11.38
2019-05-17T08:56:10.213Z,12.13
2019-05-17T08:58:40.351Z,11.45
2019-05-17T09:01:11.253Z,11.03
2019-05-17T09:03:41.038Z,11.43
2019-05-17T09:06:12.448Z,10.93
2019-05-17T09:08:40.561Z,10.75
2019-05-17T09:11:09.880Z,11.40
2019-05-17T09:13:41.258Z,10.68
2019-05-17T09:16:10.711Z,11.53
2019-05-17T09:18:39.561Z,11.00
2019-05-17T09:21:09.713Z,12.70
2019-05-17T09:23:39.624Z,12.23
2019-05-17T09:26:11.318Z,11.10
2019-05-17T09:28:39.769Z,11.73
2019-05-17T09:31:10.370Z,11.55
2019-05-17T09:33:40.457Z,12.50
2019-05-17T09:36:10.123Z,11.00
2019-05-17T09:38:40.377Z,11.73
2019-05-17T09:41:09.435Z,10.25
2019-05-17T09:43:40.067Z,11.08
2019-05-17T09:46:10.696Z,10.95
2019-05-17T09:48:39.819Z,11.48
2019-05-17T09:51:10.281Z,11.03
2019-05-17T09:53:40.143Z,10.45
2019-05-17T09:56:09.959Z,11.25
2019-05-17T09:58:39.672Z,11.30
2019-05-17T10:01:09.437Z,10.45
2019-05-17T10:03:39.752Z,11.40
2019-05-17T10:06:09.641Z,10.05
2019-05-17T10:08:39.417Z,11.23
2019-05-17T10:11:11.262Z,10.32
2019-05-17T10:13:38.115Z,10.35
2019-05-17T10:16:10.109Z,10.98
2019-05-17T10:18:40.089Z,11.12
2019-05-17T10:21:10.484Z,10.85
2019-05-17T10:23:40.648Z,11.43
2019-05-17T10:26:10.723Z,10.32
2019-05-17T10:28:40.026Z,9.93
2019-05-17T10:31:11.251Z,11.20
2019-05-17T10:33:40.086Z,11.00
2019-05-17T10:36:08.628Z,11.03
2019-05-17T10:38:39.623Z,10.43
2019-05-17T10:41:10.114Z,11.25
2019-05-17T10:43:39.289Z,11.30
2019-05-17T10:46:10.339Z,11.30
2019-05-17T10:48:41.125Z,12.10
2019-05-17T10:51:10.088Z,11.65
2019-05-17T10:53:40.313Z,10.43
2019-05-17T10:56:09.986Z,10.82
2019-05-17T10:58:39.975Z,11.90
2019-05-17T11:01:10.297Z,11.13
2019-05-17T11:03:39.715Z,10.38
2019-05-17T11:06:10.819Z,11.50
2019-05-17T11:08:38.690Z,11.28
2019-05-17T11:11:07.104Z,11.75
2019-05-17T11:13:35.611Z,11.05
2019-05-17T11:16:04.082Z,11.15
2019-05-17T11:18:32.547Z,11.35
2019-05-17T11:21:01.013Z,10.32
2019-05-17T11:23:29.532Z,10.82
2019-05-17T11:25:59.530Z,10.68
2019-05-17T11:28:28.105Z,11.12
2019-05-17T11:31:02.653Z,12.00
2019-05-17T11:33:31.094Z,10.70
2019-05-17T11:35:59.641Z,12.15
2019-05-17T11:38:28.072Z,11.03
2019-05-17T11:40:56.549Z,11.18
2019-05-17T11:43:25.055Z,10.80
2019-05-17T11:45:53.488Z,10.70
2019-05-17T11:48:21.939Z,11.45
2019-05-17T11:50:50.388Z,10.32
2019-05-17T11:53:20.492Z,9.83
2019-05-17T11:55:49.035Z,10.45
2019-05-17T11:58:17.481Z,10.00
2019-05-17T12:00:45.902Z,10.03
2019-05-17T12:03:14.355Z,10.45
2019-05-17T12:05:42.905Z,10.78
2019-05-17T12:08:11.339Z,9.83
2019-05-17T12:10:39.824Z,9.80
2019-05-17T12:13:08.368Z,10.70
2019-05-17T12:15:44.817Z,9.20
2019-05-17T12:18:07.005Z,9.68
2019-05-17T12:20:38.808Z,9.58
2019-05-17T12:23:07.244Z,8.98
2019-05-17T12:25:35.774Z,8.50
2019-05-17T12:28:04.292Z,8.45
2019-05-17T12:30:32.933Z,8.55
2019-05-17T12:33:01.374Z,7.85
2019-05-17T12:35:29.847Z,8.58
2019-05-17T12:37:59.479Z,9.78
2019-05-17T12:40:29.657Z,9.40
2019-05-17T12:42:58.093Z,9.73
2019-05-17T12:45:26.671Z,10.58
2019-05-17T12:47:55.126Z,10.60
2019-05-17T12:50:23.652Z,9.68
2019-05-17T12:52:55.174Z,10.03
2019-05-17T12:55:23.655Z,10.40
2019-05-17T12:57:52.092Z,10.32
2019-05-17T13:00:21.179Z,10.25
2019-05-17T13:02:50.232Z,10.20
2019-05-17T13:05:18.837Z,9.80
2019-05-17T13:07:47.261Z,9.33
2019-05-17T13:10:18.275Z,8.68
2019-05-17T13:12:46.751Z,8.85
2019-05-17T13:15:23.074Z,9.78
2019-05-17T13:17:46.693Z,8.33
2019-05-17T13:20:16.598Z,8.45
2019-05-17T13:22:45.124Z,8.93
2019-05-17T13:25:13.869Z,9.00
2019-05-17T13:27:47.367Z,9.20
2019-05-17T13:30:15.648Z,9.38
2019-05-17T13:32:44.145Z,8.70
2019-05-17T13:35:13.693Z,9.50
2019-05-17T13:37:42.111Z,9.68
2019-05-17T13:40:12.999Z,8.45
2019-05-17T13:42:41.046Z,9.60
2019-05-17T13:45:10.933Z,8.70
2019-05-17T13:47:39.407Z,9.37
2019-05-17T13:50:08.737Z,9.33
2019-05-17T13:52:37.281Z,10.13
2019-05-17T13:55:07.037Z,9.03
2019-05-17T13:57:35.506Z,12.28
2019-05-17T14:00:07.462Z,9.60
2019-05-17T14:02:35.912Z,9.78
2019-05-17T14:05:06.780Z,9.68
2019-05-17T14:10:03.368Z,8.90
2019-05-17T14:12:31.778Z,8.63
2019-05-17T14:15:00.236Z,8.55
2019-05-17T14:17:29.035Z,9.80
2019-05-17T14:19:57.477Z,9.28
2019-05-17T14:22:25.883Z,9.30
2019-05-17T14:24:54.346Z,9.40
2019-05-17T14:27:22.774Z,9.80
2019-05-17T14:29:51.330Z,10.35
2019-05-17T14:32:19.873Z,10.25
2019-05-17T14:34:48.337Z,9.13
2019-05-17T14:37:16.786Z,9.85
2019-05-17T14:39:45.325Z,9.70
2019-05-17T14:42:15.385Z,9.73
2019-05-17T14:49:52.540Z,8.83
2019-05-17T14:52:20.962Z,8.65
2019-05-17T14:54:49.681Z,9.33
2019-05-17T14:57:18.186Z,8.83
2019-05-17T14:59:46.664Z,8.90
2019-05-17T15:02:15.117Z,9.10
2019-05-17T15:04:43.574Z,9.75
2019-05-17T15:07:12.124Z,9.25
2019-05-17T15:09:40.594Z,8.60
2019-05-17T15:12:09.145Z,9.13
2019-05-17T15:14:37.613Z,8.73
2019-05-17T15:17:22.139Z,8.93
2019-05-17T15:20:25.708Z,9.18
2019-05-17T15:26:21.623Z,9.45
2019-05-17T15:28:50.079Z,9.43
2019-05-17T15:31:18.565Z,9.08
2019-05-17T15:33:48.663Z,8.90
2019-05-17T15:36:22.841Z,8.50
2019-05-17T15:38:51.345Z,9.75
2019-05-17T15:41:19.825Z,8.58
2019-05-17T15:43:48.380Z,9.15
2019-05-17T15:46:18.545Z,9.43
2019-05-17T15:48:47.020Z,7.87
2019-05-17T15:51:15.476Z,8.68
2019-05-17T15:53:44.010Z,7.97
2019-05-17T15:56:12.433Z,7.50
2019-05-17T15:58:40.880Z,7.58
2019-05-17T16:01:09.349Z,7.65
2019-05-17T16:03:37.831Z,8.60
2019-05-17T16:06:07.798Z,8.15
2019-05-17T16:08:36.259Z,8.50
2019-05-17T16:11:04.838Z,8.43
2019-05-17T16:13:33.961Z,8.28
2019-05-17T16:16:04.165Z,8.75
2019-05-17T16:18:34.981Z,8.60
2019-05-17T16:23:32.681Z,8.78
2019-05-17T16:26:01.472Z,9.18
2019-05-17T16:28:29.956Z,7.87
2019-05-17T16:31:00.474Z,8.58
2019-05-17T16:33:30.637Z,8.98
2019-05-17T16:35:59.059Z,8.20
2019-05-17T16:38:27.518Z,8.28
2019-05-17T16:40:56.000Z,7.85
2019-05-17T16:43:24.442Z,9.15
2019-05-17T16:45:52.910Z,8.40
2019-05-17T16:48:21.451Z,9.25
2019-05-17T16:50:49.926Z,10.88
2019-05-17T16:53:18.416Z,10.45
2019-05-17T16:55:46.930Z,11.78
2019-05-17T16:58:16.951Z,11.03
2019-05-17T17:00:51.390Z,11.08
2019-05-17T17:03:19.919Z,11.30
2019-05-17T17:05:48.369Z,11.05
2019-05-17T17:08:16.822Z,11.18
2019-05-17T17:10:45.326Z,10.15
2019-05-17T17:13:13.772Z,12.03
2019-05-17T17:15:42.226Z,11.83
2019-05-17T17:18:10.723Z,11.88
2019-05-17T17:20:39.232Z,11.25
2019-05-17T17:23:10.197Z,11.93
2019-05-17T17:25:38.687Z,13.30
2019-05-17T17:28:07.161Z,12.70
2019-05-17T17:30:37.993Z,12.13
2019-05-17T17:35:34.265Z,11.60
2019-05-17T17:38:02.737Z,12.10
2019-05-17T17:40:31.269Z,12.70
2019-05-17T17:42:59.724Z,12.47
2019-05-17T17:45:28.338Z,12.20
2019-05-17T17:47:56.783Z,12.33
2019-05-17T17:50:25.265Z,12.60
2019-05-17T17:52:53.933Z,13.18
2019-05-17T17:55:22.507Z,12.60
2019-05-17T17:57:51.382Z,12.40
2019-05-17T18:00:20.646Z,12.00
2019-05-17T18:02:49.138Z,12.98
2019-05-17T18:05:17.719Z,12.53
2019-05-17T18:07:46.253Z,12.33
2019-05-17T18:10:26.809Z,12.88
2019-05-17T18:12:55.268Z,12.45
2019-05-17T18:15:38.798Z,13.43
2019-05-17T18:18:07.207Z,12.93
2019-05-17T18:20:35.764Z,12.88
2019-05-17T18:23:04.388Z,12.20
2019-05-17T18:25:33.015Z,13.05
2019-05-17T18:28:01.478Z,13.08
2019-05-17T18:31:03.261Z,12.30
2019-05-17T18:33:33.836Z,11.75
2019-05-17T18:36:02.335Z,13.43
2019-05-17T18:38:32.689Z,13.48
2019-05-17T18:41:01.143Z,14.20
2019-05-17T18:43:29.603Z,13.08
2019-05-17T18:45:58.064Z,13.18
2019-05-17T18:48:26.490Z,13.55
2019-05-17T18:50:54.925Z,14.45
2019-05-17T18:53:23.356Z,13.45
2019-05-17T18:55:54.913Z,13.58
2019-05-17T18:58:23.333Z,13.30
2019-05-17T19:00:51.782Z,13.60
2019-05-17T19:03:20.232Z,14.13
2019-05-17T19:05:48.681Z,14.68
2019-05-17T19:08:17.226Z,15.08
2019-05-17T19:10:45.725Z,14.05
2019-05-17T19:13:14.201Z,13.38
2019-05-17T19:15:42.671Z,14.75
2019-05-17T19:18:11.669Z,15.13
2019-05-17T19:20:40.174Z,14.07
2019-05-17T19:23:09.703Z,13.93
2019-05-17T19:25:39.907Z,14.73
2019-05-17T19:28:08.411Z,14.80
2019-05-17T19:30:36.864Z,14.78
2019-05-17T19:33:05.951Z,14.63
2019-05-17T19:35:35.204Z,14.73
2019-05-17T19:38:07.456Z,15.08
2019-05-17T19:40:35.915Z,14.70
2019-05-17T19:43:04.404Z,14.47
2019-05-17T19:45:32.858Z,15.25
2019-05-17T19:48:01.360Z,14.95
2019-05-17T19:50:30.176Z,14.35
2019-05-17T19:52:58.646Z,14.20
2019-05-17T19:55:27.996Z,14.63
2019-05-17T19:57:56.558Z,14.53
2019-05-17T20:00:25.151Z,14.10
2019-05-17T20:02:53.616Z,14.13
2019-05-17T20:05:22.030Z,14.83
2019-05-17T20:07:51.718Z,14.00
2019-05-17T20:10:23.225Z,14.25
2019-05-17T20:12:51.466Z,14.40
2019-05-17T20:15:33.625Z,13.95
2019-05-17T20:17:50.029Z,13.88
2019-05-17T20:20:18.599Z,13.40
2019-05-17T20:22:48.681Z,13.25
2019-05-17T20:25:17.457Z,12.33
2019-05-17T20:27:45.894Z,13.30
2019-05-17T20:30:17.209Z,13.03
2019-05-17T20:32:54.231Z,12.30
2019-05-17T20:35:37.656Z,12.90
2019-05-17T20:38:06.950Z,12.78
2019-05-17T20:40:36.400Z,12.47
2019-05-17T20:43:13.984Z,13.13
2019-05-17T20:45:44.128Z,12.15
2019-05-17T20:48:14.190Z,12.37
2019-05-17T20:50:46.381Z,12.82
2019-05-17T20:53:18.863Z,12.43
2019-05-17T20:55:46.466Z,14.15
2019-05-17T20:58:14.916Z,14.80
2019-05-17T21:00:46.512Z,17.75
2019-05-17T21:03:15.070Z,17.37
2019-05-17T21:05:45.205Z,17.37
2019-05-17T21:08:15.225Z,19.12
2019-05-17T21:10:45.123Z,18.30
2019-05-17T21:13:13.580Z,19.30
2019-05-17T21:15:47.749Z,18.35
2019-05-17T21:18:14.459Z,18.35
2019-05-17T21:20:42.923Z,18.30
2019-05-17T21:23:11.381Z,17.20
2019-05-17T21:25:39.817Z,18.02
2019-05-17T21:28:08.722Z,18.73
2019-05-17T21:30:37.181Z,18.57
2019-05-17T21:33:05.721Z,17.32
2019-05-17T21:35:34.129Z,16.40
2019-05-17T21:38:04.043Z,18.37
2019-05-17T21:40:33.059Z,17.80
2019-05-17T21:43:01.514Z,17.77
2019-05-17T21:45:29.959Z,17.67
2019-05-17T21:47:58.451Z,18.20
2019-05-17T21:50:26.861Z,16.75
2019-05-17T21:52:55.338Z,16.30
2019-05-17T21:55:23.811Z,17.27
2019-05-17T21:57:52.297Z,16.82
2019-05-17T22:00:51.134Z,17.07
2019-05-17T22:03:19.712Z,17.02
2019-05-17T22:05:48.280Z,16.52
2019-05-17T22:08:16.733Z,17.98
2019-05-17T22:10:46.326Z,18.73
2019-05-17T22:13:14.785Z,18.70
2019-05-17T22:15:43.265Z,18.80
2019-05-17T22:18:11.721Z,19.15
2019-05-17T22:20:40.131Z,18.87
2019-05-17T22:23:08.582Z,17.60
2019-05-17T22:25:37.065Z,19.10
2019-05-17T22:28:05.615Z,19.90
2019-05-17T22:30:34.073Z,19.67
2019-05-17T22:33:02.510Z,19.70
2019-05-17T22:35:30.940Z,18.32
2019-05-17T22:37:59.432Z,20.55
2019-05-17T22:40:27.845Z,19.42
2019-05-17T22:42:56.488Z,20.17
2019-05-17T22:45:24.953Z,19.05
2019-05-17T22:47:53.368Z,20.40
2019-05-17T22:50:21.806Z,19.57
2019-05-17T22:52:51.938Z,19.52
2019-05-17T22:55:20.391Z,20.10
2019-05-17T22:57:48.863Z,20.17
2019-05-17T23:00:17.713Z,20.82
2019-05-17T23:02:46.141Z,20.50
2019-05-17T23:05:14.669Z,20.85
2019-05-17T23:07:43.090Z,20.62
2019-05-17T23:10:11.741Z,19.67
2019-05-17T23:12:40.229Z,22.35
2019-05-17T23:15:09.225Z,21.65
2019-05-17T23:17:37.697Z,20.52
2019-05-17T23:20:06.920Z,21.75
2019-05-17T23:22:35.372Z,22.10
2019-05-17T23:25:05.269Z,20.27
2019-05-17T23:27:33.702Z,20.33
2019-05-17T23:30:02.128Z,20.15
2019-05-17T23:32:30.599Z,20.75
2019-05-17T23:34:59.055Z,20.57
2019-05-17T23:37:27.494Z,20.68
2019-05-17T23:39:56.012Z,19.12
2019-05-17T23:42:24.447Z,20.32
2019-05-17T23:44:55.203Z,20.27
2019-05-17T23:47:23.620Z,20.02
2019-05-17T23:49:52.146Z,18.92
2019-05-17T23:52:20.529Z,18.48
2019-05-17T23:54:49.021Z,19.12
2019-05-17T23:57:17.633Z,19.57
2019-05-17T23:59:46.122Z,18.07
